sensor_id;sensor_type;location;lat;lon;timestamp;temperature;humidity
30280;DHT22;17097;50.916;5.344;2024-02-21T00:00:21;11.00;99.90
30280;DHT22;17097;50.916;5.344;2024-02-21T00:02:47;11.00;99.90
30280;DHT22;17097;50.916;5.344;2024-02-21T00:05:17;10.80;99.90
30280;DHT22;17097;50.916;5.344;2024-02-21T00:07:45;10.80;99.90
30280;DHT22;17097;50.916;5.344;2024-02-21T00:10:13;10.70;99.90
30280;DHT22;17097;50.916;5.344;2024-02-21T00:12:39;10.70;99.90
30280;DHT22;17097;50.916;5.344;2024-02-21T00:15:04;10.70;99.90
30280;DHT22;17097;50.916;5.344;2024-02-21T00:17:34;10.70;99.90
30280;DHT22;17097;50.916;5.344;2024-02-21T00:20:04;10.70;99.90
30280;DHT22;17097;50.916;5.344;2024-02-21T00:22:30;10.80;99.90
30280;DHT22;17097;50.916;5.344;2024-02-21T00:24:56;10.80;99.90
30280;DHT22;17097;50.916;5.344;2024-02-21T00:27:26;10.90;99.90
30280;DHT22;17097;50.916;5.344;2024-02-21T00:29:53;10.80;99.90
30280;DHT22;17097;50.916;5.344;2024-02-21T00:32:19;10.90;99.90
30280;DHT22;17097;50.916;5.344;2024-02-21T00:34:45;10.90;99.90
30280;DHT22;17097;50.916;5.344;2024-02-21T00:37:10;10.90;99.90
30280;DHT22;17097;50.916;5.344;2024-02-21T00:39:38;11.00;99.90
30280;DHT22;17097;50.916;5.344;2024-02-21T00:42:04;11.00;99.90
30280;DHT22;17097;50.916;5.344;2024-02-21T00:44:30;10.90;99.90
30280;DHT22;17097;50.916;5.344;2024-02-21T00:46:55;11.10;99.90
30280;DHT22;17097;50.916;5.344;2024-02-21T00:49:21;11.10;99.90
30280;DHT22;17097;50.916;5.344;2024-02-21T00:51:49;11.20;99.90
30280;DHT22;17097;50.916;5.344;2024-02-21T00:54:20;11.20;99.90
30280;DHT22;17097;50.916;5.344;2024-02-21T00:56:48;11.10;99.90
30280;DHT22;17097;50.916;5.344;2024-02-21T00:59:16;11.10;99.90
30280;DHT22;17097;50.916;5.344;2024-02-21T01:01:42;11.00;99.90
30280;DHT22;17097;50.916;5.344;2024-02-21T01:04:09;10.90;99.90
30280;DHT22;17097;50.916;5.344;2024-02-21T01:06:37;10.80;99.90
30280;DHT22;17097;50.916;5.344;2024-02-21T01:09:02;10.90;99.90
30280;DHT22;17097;50.916;5.344;2024-02-21T01:11:28;11.00;99.90
30280;DHT22;17097;50.916;5.344;2024-02-21T01:13:56;11.10;99.90
30280;DHT22;17097;50.916;5.344;2024-02-21T01:16:24;11.10;99.90
30280;DHT22;17097;50.916;5.344;2024-02-21T01:18:51;11.00;99.90
30280;DHT22;17097;50.916;5.344;2024-02-21T01:21:17;10.90;99.90
30280;DHT22;17097;50.916;5.344;2024-02-21T01:23:43;10.90;99.90
30280;DHT22;17097;50.916;5.344;2024-02-21T01:26:11;11.00;99.90
30280;DHT22;17097;50.916;5.344;2024-02-21T01:28:40;10.90;99.90
30280;DHT22;17097;50.916;5.344;2024-02-21T01:31:08;11.00;99.90
30280;DHT22;17097;50.916;5.344;2024-02-21T01:33:33;10.90;99.90
30280;DHT22;17097;50.916;5.344;2024-02-21T01:36:06;10.70;99.90
30280;DHT22;17097;50.916;5.344;2024-02-21T01:38:32;10.70;99.90
30280;DHT22;17097;50.916;5.344;2024-02-21T01:40:58;10.70;99.90
30280;DHT22;17097;50.916;5.344;2024-02-21T01:43:24;10.90;99.90
30280;DHT22;17097;50.916;5.344;2024-02-21T01:45:54;10.80;99.90
30280;DHT22;17097;50.916;5.344;2024-02-21T01:48:22;10.80;99.90
30280;DHT22;17097;50.916;5.344;2024-02-21T01:50:49;10.80;99.90
30280;DHT22;17097;50.916;5.344;2024-02-21T01:53:18;10.70;99.90
30280;DHT22;17097;50.916;5.344;2024-02-21T01:55:48;10.80;99.90
30280;DHT22;17097;50.916;5.344;2024-02-21T01:58:15;10.60;99.90
30280;DHT22;17097;50.916;5.344;2024-02-21T02:00:46;10.50;99.90
30280;DHT22;17097;50.916;5.344;2024-02-21T02:03:13;10.60;99.90
30280;DHT22;17097;50.916;5.344;2024-02-21T02:05:51;10.70;99.90
30280;DHT22;17097;50.916;5.344;2024-02-21T02:08:20;10.70;99.90
30280;DHT22;17097;50.916;5.344;2024-02-21T02:10:47;10.70;99.90
30280;DHT22;17097;50.916;5.344;2024-02-21T02:13:13;10.80;99.90
30280;DHT22;17097;50.916;5.344;2024-02-21T02:15:43;10.80;99.90
30280;DHT22;17097;50.916;5.344;2024-02-21T02:18:09;10.80;99.90
30280;DHT22;17097;50.916;5.344;2024-02-21T02:20:36;10.80;99.90
30280;DHT22;17097;50.916;5.344;2024-02-21T02:23:10;10.70;99.90
30280;DHT22;17097;50.916;5.344;2024-02-21T02:25:37;10.60;99.90
30280;DHT22;17097;50.916;5.344;2024-02-21T02:28:04;10.50;99.90
30280;DHT22;17097;50.916;5.344;2024-02-21T02:30:34;10.40;99.90
30280;DHT22;17097;50.916;5.344;2024-02-21T02:33:02;10.60;99.90
30280;DHT22;17097;50.916;5.344;2024-02-21T02:35:28;10.70;99.90
30280;DHT22;17097;50.916;5.344;2024-02-21T02:37:55;10.70;99.90
30280;DHT22;17097;50.916;5.344;2024-02-21T02:40:21;10.60;99.90
30280;DHT22;17097;50.916;5.344;2024-02-21T02:42:47;10.50;99.90
30280;DHT22;17097;50.916;5.344;2024-02-21T02:45:15;10.60;99.90
30280;DHT22;17097;50.916;5.344;2024-02-21T02:47:41;10.60;99.90
30280;DHT22;17097;50.916;5.344;2024-02-21T02:50:07;10.70;99.90
30280;DHT22;17097;50.916;5.344;2024-02-21T02:52:33;10.80;99.90
30280;DHT22;17097;50.916;5.344;2024-02-21T02:55:01;10.80;99.90
30280;DHT22;17097;50.916;5.344;2024-02-21T02:57:29;10.70;99.90
30280;DHT22;17097;50.916;5.344;2024-02-21T02:59:56;10.80;99.90
30280;DHT22;17097;50.916;5.344;2024-02-21T03:02:24;10.80;99.90
30280;DHT22;17097;50.916;5.344;2024-02-21T03:04:55;10.70;99.90
30280;DHT22;17097;50.916;5.344;2024-02-21T03:07:21;10.80;99.90
30280;DHT22;17097;50.916;5.344;2024-02-21T03:09:46;10.70;99.90
30280;DHT22;17097;50.916;5.344;2024-02-21T03:12:14;10.70;99.90
30280;DHT22;17097;50.916;5.344;2024-02-21T03:14:52;10.70;99.90
30280;DHT22;17097;50.916;5.344;2024-02-21T03:17:20;10.60;99.90
30280;DHT22;17097;50.916;5.344;2024-02-21T03:19:46;10.60;99.90
30280;DHT22;17097;50.916;5.344;2024-02-21T03:22:12;10.50;99.90
30280;DHT22;17097;50.916;5.344;2024-02-21T03:24:37;10.60;99.90
30280;DHT22;17097;50.916;5.344;2024-02-21T03:27:05;10.50;99.90
30280;DHT22;17097;50.916;5.344;2024-02-21T03:29:31;10.60;99.90
30280;DHT22;17097;50.916;5.344;2024-02-21T03:31:56;10.50;99.90
30280;DHT22;17097;50.916;5.344;2024-02-21T03:34:24;10.70;99.90
30280;DHT22;17097;50.916;5.344;2024-02-21T03:36:50;10.50;99.90
30280;DHT22;17097;50.916;5.344;2024-02-21T03:39:15;10.40;99.90
30280;DHT22;17097;50.916;5.344;2024-02-21T03:41:41;10.40;99.90
30280;DHT22;17097;50.916;5.344;2024-02-21T03:44:07;10.50;99.90
30280;DHT22;17097;50.916;5.344;2024-02-21T03:46:32;10.30;99.90
30280;DHT22;17097;50.916;5.344;2024-02-21T03:49:00;10.30;99.90
30280;DHT22;17097;50.916;5.344;2024-02-21T03:51:28;10.40;99.90
30280;DHT22;17097;50.916;5.344;2024-02-21T03:53:56;10.30;99.90
30280;DHT22;17097;50.916;5.344;2024-02-21T03:56:22;10.20;99.90
30280;DHT22;17097;50.916;5.344;2024-02-21T03:58:47;10.10;99.90
30280;DHT22;17097;50.916;5.344;2024-02-21T04:01:15;10.10;99.90
30280;DHT22;17097;50.916;5.344;2024-02-21T04:03:41;10.10;99.90
30280;DHT22;17097;50.916;5.344;2024-02-21T04:06:10;10.10;99.90
30280;DHT22;17097;50.916;5.344;2024-02-21T04:08:36;10.20;99.90
30280;DHT22;17097;50.916;5.344;2024-02-21T04:11:01;10.30;99.90
30280;DHT22;17097;50.916;5.344;2024-02-21T04:13:27;10.20;99.90
30280;DHT22;17097;50.916;5.344;2024-02-21T04:15:53;10.10;99.90
30280;DHT22;17097;50.916;5.344;2024-02-21T04:18:18;10.20;99.90
30280;DHT22;17097;50.916;5.344;2024-02-21T04:20:44;10.10;99.90
30280;DHT22;17097;50.916;5.344;2024-02-21T04:23:12;10.10;99.90
30280;DHT22;17097;50.916;5.344;2024-02-21T04:25:40;9.90;99.90
30280;DHT22;17097;50.916;5.344;2024-02-21T04:28:06;10.00;99.90
30280;DHT22;17097;50.916;5.344;2024-02-21T04:30:34;10.00;99.90
30280;DHT22;17097;50.916;5.344;2024-02-21T04:33:00;10.10;99.90
30280;DHT22;17097;50.916;5.344;2024-02-21T04:35:26;10.00;99.90
30280;DHT22;17097;50.916;5.344;2024-02-21T04:37:51;10.00;99.90
30280;DHT22;17097;50.916;5.344;2024-02-21T04:40:19;10.10;99.90
30280;DHT22;17097;50.916;5.344;2024-02-21T04:42:45;10.20;99.90
30280;DHT22;17097;50.916;5.344;2024-02-21T04:45:11;10.20;99.90
30280;DHT22;17097;50.916;5.344;2024-02-21T04:47:42;10.10;99.90
30280;DHT22;17097;50.916;5.344;2024-02-21T04:50:10;10.00;99.90
30280;DHT22;17097;50.916;5.344;2024-02-21T04:52:35;10.00;99.90
30280;DHT22;17097;50.916;5.344;2024-02-21T04:55:01;10.00;99.90
30280;DHT22;17097;50.916;5.344;2024-02-21T04:57:27;9.90;99.90
30280;DHT22;17097;50.916;5.344;2024-02-21T04:59:54;9.90;99.90
30280;DHT22;17097;50.916;5.344;2024-02-21T05:02:23;9.90;99.90
30280;DHT22;17097;50.916;5.344;2024-02-21T05:04:52;9.90;99.90
30280;DHT22;17097;50.916;5.344;2024-02-21T05:07:18;9.80;99.90
30280;DHT22;17097;50.916;5.344;2024-02-21T05:09:49;9.80;99.90
30280;DHT22;17097;50.916;5.344;2024-02-21T05:12:15;9.80;99.90
30280;DHT22;17097;50.916;5.344;2024-02-21T05:14:41;9.90;99.90
30280;DHT22;17097;50.916;5.344;2024-02-21T05:17:09;9.70;99.90
30280;DHT22;17097;50.916;5.344;2024-02-21T05:19:34;9.80;99.90
30280;DHT22;17097;50.916;5.344;2024-02-21T05:22:02;9.80;99.90
30280;DHT22;17097;50.916;5.344;2024-02-21T05:24:28;9.80;99.90
30280;DHT22;17097;50.916;5.344;2024-02-21T05:26:56;9.60;99.90
30280;DHT22;17097;50.916;5.344;2024-02-21T05:29:24;9.60;99.90
30280;DHT22;17097;50.916;5.344;2024-02-21T05:34:19;9.70;99.90
30280;DHT22;17097;50.916;5.344;2024-02-21T05:36:47;9.70;99.90
30280;DHT22;17097;50.916;5.344;2024-02-21T05:39:15;9.70;99.90
30280;DHT22;17097;50.916;5.344;2024-02-21T05:41:48;9.80;99.90
30280;DHT22;17097;50.916;5.344;2024-02-21T05:44:16;9.70;99.90
30280;DHT22;17097;50.916;5.344;2024-02-21T05:46:42;9.80;99.90
30280;DHT22;17097;50.916;5.344;2024-02-21T05:49:08;9.80;99.90
30280;DHT22;17097;50.916;5.344;2024-02-21T05:51:36;9.90;99.90
30280;DHT22;17097;50.916;5.344;2024-02-21T05:54:04;9.90;99.90
30280;DHT22;17097;50.916;5.344;2024-02-21T05:56:29;9.80;99.90
30280;DHT22;17097;50.916;5.344;2024-02-21T05:58:55;9.90;99.90
30280;DHT22;17097;50.916;5.344;2024-02-21T06:01:21;9.80;99.90
30280;DHT22;17097;50.916;5.344;2024-02-21T06:03:47;9.80;99.90
30280;DHT22;17097;50.916;5.344;2024-02-21T06:06:12;9.90;99.90
30280;DHT22;17097;50.916;5.344;2024-02-21T06:08:40;9.90;99.90
30280;DHT22;17097;50.916;5.344;2024-02-21T06:11:08;9.80;99.90
30280;DHT22;17097;50.916;5.344;2024-02-21T06:13:38;9.80;99.90
30280;DHT22;17097;50.916;5.344;2024-02-21T06:16:06;9.80;99.90
30280;DHT22;17097;50.916;5.344;2024-02-21T06:18:32;9.50;99.90
30280;DHT22;17097;50.916;5.344;2024-02-21T06:20:57;9.50;99.90
30280;DHT22;17097;50.916;5.344;2024-02-21T06:23:25;9.50;99.90
30280;DHT22;17097;50.916;5.344;2024-02-21T06:25:53;9.70;99.90
30280;DHT22;17097;50.916;5.344;2024-02-21T06:28:21;9.70;99.90
30280;DHT22;17097;50.916;5.344;2024-02-21T06:30:47;9.70;99.90
30280;DHT22;17097;50.916;5.344;2024-02-21T06:33:12;9.80;99.90
30280;DHT22;17097;50.916;5.344;2024-02-21T06:35:40;9.80;99.90
30280;DHT22;17097;50.916;5.344;2024-02-21T06:38:08;9.80;99.90
30280;DHT22;17097;50.916;5.344;2024-02-21T06:40:38;9.70;99.90
30280;DHT22;17097;50.916;5.344;2024-02-21T06:43:08;9.60;99.90
30280;DHT22;17097;50.916;5.344;2024-02-21T06:45:33;9.40;99.90
30280;DHT22;17097;50.916;5.344;2024-02-21T06:48:04;9.20;99.90
30280;DHT22;17097;50.916;5.344;2024-02-21T06:50:29;9.30;99.90
30280;DHT22;17097;50.916;5.344;2024-02-21T06:52:55;9.30;99.90
30280;DHT22;17097;50.916;5.344;2024-02-21T06:55:20;9.40;99.90
30280;DHT22;17097;50.916;5.344;2024-02-21T06:57:48;9.50;99.90
30280;DHT22;17097;50.916;5.344;2024-02-21T07:00:14;9.50;99.90
30280;DHT22;17097;50.916;5.344;2024-02-21T07:02:40;9.50;99.90
30280;DHT22;17097;50.916;5.344;2024-02-21T07:05:17;9.40;99.90
30280;DHT22;17097;50.916;5.344;2024-02-21T07:07:43;9.30;99.90
30280;DHT22;17097;50.916;5.344;2024-02-21T07:10:10;9.40;99.90
30280;DHT22;17097;50.916;5.344;2024-02-21T07:12:39;9.40;99.90
30280;DHT22;17097;50.916;5.344;2024-02-21T07:15:08;9.30;99.90
30280;DHT22;17097;50.916;5.344;2024-02-21T07:17:34;9.30;99.90
30280;DHT22;17097;50.916;5.344;2024-02-21T07:20:00;9.40;99.90
30280;DHT22;17097;50.916;5.344;2024-02-21T07:22:26;9.30;99.90
30280;DHT22;17097;50.916;5.344;2024-02-21T07:24:54;9.50;99.90
30280;DHT22;17097;50.916;5.344;2024-02-21T07:27:20;9.50;99.90
30280;DHT22;17097;50.916;5.344;2024-02-21T07:29:46;9.40;99.90
30280;DHT22;17097;50.916;5.344;2024-02-21T07:32:14;9.40;99.90
30280;DHT22;17097;50.916;5.344;2024-02-21T07:34:39;9.50;99.90
30280;DHT22;17097;50.916;5.344;2024-02-21T07:37:05;9.40;99.90
30280;DHT22;17097;50.916;5.344;2024-02-21T07:39:36;9.40;99.90
30280;DHT22;17097;50.916;5.344;2024-02-21T07:42:02;9.50;99.90
30280;DHT22;17097;50.916;5.344;2024-02-21T07:44:28;9.40;99.90
30280;DHT22;17097;50.916;5.344;2024-02-21T07:46:54;9.20;99.90
30280;DHT22;17097;50.916;5.344;2024-02-21T07:49:21;9.20;99.90
30280;DHT22;17097;50.916;5.344;2024-02-21T07:51:47;9.30;99.90
30280;DHT22;17097;50.916;5.344;2024-02-21T07:54:12;9.40;99.90
30280;DHT22;17097;50.916;5.344;2024-02-21T07:56:38;9.30;99.90
30280;DHT22;17097;50.916;5.344;2024-02-21T07:59:06;9.20;99.90
30280;DHT22;17097;50.916;5.344;2024-02-21T08:01:33;9.20;99.90
30280;DHT22;17097;50.916;5.344;2024-02-21T08:03:58;9.10;99.90
30280;DHT22;17097;50.916;5.344;2024-02-21T08:06:24;9.10;99.90
30280;DHT22;17097;50.916;5.344;2024-02-21T08:08:50;9.30;99.90
30280;DHT22;17097;50.916;5.344;2024-02-21T08:11:19;9.40;99.90
30280;DHT22;17097;50.916;5.344;2024-02-21T08:13:45;9.40;99.90
30280;DHT22;17097;50.916;5.344;2024-02-21T08:16:10;9.40;99.90
30280;DHT22;17097;50.916;5.344;2024-02-21T08:18:36;9.50;99.90
30280;DHT22;17097;50.916;5.344;2024-02-21T08:21:04;9.50;99.90
30280;DHT22;17097;50.916;5.344;2024-02-21T08:23:32;9.50;99.90
30280;DHT22;17097;50.916;5.344;2024-02-21T08:25:57;9.50;99.90
30280;DHT22;17097;50.916;5.344;2024-02-21T08:28:23;9.70;99.90
30280;DHT22;17097;50.916;5.344;2024-02-21T08:30:51;9.60;99.90
30280;DHT22;17097;50.916;5.344;2024-02-21T08:33:22;9.60;99.90
30280;DHT22;17097;50.916;5.344;2024-02-21T08:35:54;9.60;99.90
30280;DHT22;17097;50.916;5.344;2024-02-21T08:38:22;9.70;99.90
30280;DHT22;17097;50.916;5.344;2024-02-21T08:40:47;9.80;99.90
30280;DHT22;17097;50.916;5.344;2024-02-21T08:43:16;9.80;99.90
30280;DHT22;17097;50.916;5.344;2024-02-21T08:45:42;10.00;99.90
30280;DHT22;17097;50.916;5.344;2024-02-21T08:48:10;10.10;99.90
30280;DHT22;17097;50.916;5.344;2024-02-21T08:50:38;10.20;99.90
30280;DHT22;17097;50.916;5.344;2024-02-21T08:53:03;10.30;99.90
30280;DHT22;17097;50.916;5.344;2024-02-21T08:55:31;10.30;99.90
30280;DHT22;17097;50.916;5.344;2024-02-21T08:58:00;10.40;99.90
30280;DHT22;17097;50.916;5.344;2024-02-21T09:00:28;10.20;99.90
30280;DHT22;17097;50.916;5.344;2024-02-21T09:02:56;10.20;99.90
30280;DHT22;17097;50.916;5.344;2024-02-21T09:05:22;10.20;99.90
30280;DHT22;17097;50.916;5.344;2024-02-21T09:07:47;10.10;99.90
30280;DHT22;17097;50.916;5.344;2024-02-21T09:10:13;10.10;99.90
30280;DHT22;17097;50.916;5.344;2024-02-21T09:12:41;10.10;99.90
30280;DHT22;17097;50.916;5.344;2024-02-21T09:15:07;10.30;99.90
30280;DHT22;17097;50.916;5.344;2024-02-21T09:17:33;10.20;99.90
30280;DHT22;17097;50.916;5.344;2024-02-21T09:19:58;10.40;99.90
30280;DHT22;17097;50.916;5.344;2024-02-21T09:22:31;10.30;99.90
30280;DHT22;17097;50.916;5.344;2024-02-21T09:25:03;10.40;99.90
30280;DHT22;17097;50.916;5.344;2024-02-21T09:27:28;10.30;99.90
30280;DHT22;17097;50.916;5.344;2024-02-21T09:29:54;10.40;99.90
30280;DHT22;17097;50.916;5.344;2024-02-21T09:32:20;10.40;99.90
30280;DHT22;17097;50.916;5.344;2024-02-21T09:34:45;10.40;99.90
30280;DHT22;17097;50.916;5.344;2024-02-21T09:37:11;10.40;99.90
30280;DHT22;17097;50.916;5.344;2024-02-21T09:39:37;10.50;99.90
30280;DHT22;17097;50.916;5.344;2024-02-21T09:42:06;10.50;99.90
30280;DHT22;17097;50.916;5.344;2024-02-21T09:44:38;10.60;99.90
30280;DHT22;17097;50.916;5.344;2024-02-21T09:47:40;10.60;99.90
30280;DHT22;17097;50.916;5.344;2024-02-21T09:50:09;10.90;99.90
30280;DHT22;17097;50.916;5.344;2024-02-21T09:52:36;10.80;99.90
30280;DHT22;17097;50.916;5.344;2024-02-21T09:55:09;10.90;99.90
30280;DHT22;17097;50.916;5.344;2024-02-21T09:57:38;10.80;99.90
30280;DHT22;17097;50.916;5.344;2024-02-21T10:00:05;10.80;99.90
30280;DHT22;17097;50.916;5.344;2024-02-21T10:02:33;11.00;99.90
30280;DHT22;17097;50.916;5.344;2024-02-21T10:04:59;11.10;99.90
30280;DHT22;17097;50.916;5.344;2024-02-21T10:07:25;11.30;99.90
30280;DHT22;17097;50.916;5.344;2024-02-21T10:10:02;11.40;99.90
30280;DHT22;17097;50.916;5.344;2024-02-21T10:12:28;11.40;99.90
30280;DHT22;17097;50.916;5.344;2024-02-21T10:15:01;11.40;99.90
30280;DHT22;17097;50.916;5.344;2024-02-21T10:17:27;11.10;99.90
30280;DHT22;17097;50.916;5.344;2024-02-21T10:19:54;11.10;99.90
30280;DHT22;17097;50.916;5.344;2024-02-21T10:22:22;11.30;99.90
30280;DHT22;17097;50.916;5.344;2024-02-21T10:24:50;11.60;99.90
30280;DHT22;17097;50.916;5.344;2024-02-21T10:27:16;11.60;99.90
30280;DHT22;17097;50.916;5.344;2024-02-21T10:29:49;11.60;99.90
30280;DHT22;17097;50.916;5.344;2024-02-21T10:32:16;11.60;99.90
30280;DHT22;17097;50.916;5.344;2024-02-21T10:34:42;11.60;99.90
30280;DHT22;17097;50.916;5.344;2024-02-21T10:37:10;11.60;99.90
30280;DHT22;17097;50.916;5.344;2024-02-21T10:39:42;11.70;99.90
30280;DHT22;17097;50.916;5.344;2024-02-21T10:42:14;11.80;99.90
30280;DHT22;17097;50.916;5.344;2024-02-21T10:44:41;11.90;99.90
30280;DHT22;17097;50.916;5.344;2024-02-21T10:47:09;12.10;99.90
30280;DHT22;17097;50.916;5.344;2024-02-21T10:49:39;11.90;99.90
30280;DHT22;17097;50.916;5.344;2024-02-21T10:57:16;11.80;99.90
30280;DHT22;17097;50.916;5.344;2024-02-21T10:59:44;11.80;99.90
30280;DHT22;17097;50.916;5.344;2024-02-21T11:02:13;12.00;99.90
30280;DHT22;17097;50.916;5.344;2024-02-21T11:04:40;12.10;99.90
30280;DHT22;17097;50.916;5.344;2024-02-21T11:07:09;12.20;99.90
30280;DHT22;17097;50.916;5.344;2024-02-21T11:09:37;12.30;99.90
30280;DHT22;17097;50.916;5.344;2024-02-21T11:12:03;12.30;99.90
30280;DHT22;17097;50.916;5.344;2024-02-21T11:14:30;12.30;99.90
30280;DHT22;17097;50.916;5.344;2024-02-21T11:16:59;12.20;99.90
30280;DHT22;17097;50.916;5.344;2024-02-21T11:19:26;12.10;99.90
30280;DHT22;17097;50.916;5.344;2024-02-21T11:21:53;12.10;99.90
30280;DHT22;17097;50.916;5.344;2024-02-21T11:24:30;12.10;99.90
30280;DHT22;17097;50.916;5.344;2024-02-21T11:27:23;12.20;99.90
30280;DHT22;17097;50.916;5.344;2024-02-21T11:29:56;12.20;99.90
30280;DHT22;17097;50.916;5.344;2024-02-21T11:32:26;12.20;99.90
30280;DHT22;17097;50.916;5.344;2024-02-21T11:37:31;12.20;99.90
30280;DHT22;17097;50.916;5.344;2024-02-21T11:39:59;12.20;99.90
30280;DHT22;17097;50.916;5.344;2024-02-21T11:42:28;12.20;99.90
30280;DHT22;17097;50.916;5.344;2024-02-21T11:44:55;12.30;99.90
30280;DHT22;17097;50.916;5.344;2024-02-21T11:47:25;12.40;99.90
30280;DHT22;17097;50.916;5.344;2024-02-21T11:49:51;12.50;99.90
30280;DHT22;17097;50.916;5.344;2024-02-21T11:52:21;12.30;99.90
30280;DHT22;17097;50.916;5.344;2024-02-21T11:54:50;12.50;99.90
30280;DHT22;17097;50.916;5.344;2024-02-21T11:57:17;12.70;99.90
30280;DHT22;17097;50.916;5.344;2024-02-21T11:59:45;12.70;99.90
30280;DHT22;17097;50.916;5.344;2024-02-21T12:02:12;12.90;99.90
30280;DHT22;17097;50.916;5.344;2024-02-21T12:04:38;13.10;99.90
30280;DHT22;17097;50.916;5.344;2024-02-21T12:07:04;13.10;99.90
30280;DHT22;17097;50.916;5.344;2024-02-21T12:09:34;13.10;99.90
30280;DHT22;17097;50.916;5.344;2024-02-21T12:12:02;13.10;99.90
30280;DHT22;17097;50.916;5.344;2024-02-21T12:14:32;13.10;99.90
30280;DHT22;17097;50.916;5.344;2024-02-21T12:17:02;12.80;99.90
30280;DHT22;17097;50.916;5.344;2024-02-21T12:19:32;12.90;99.90
30280;DHT22;17097;50.916;5.344;2024-02-21T12:21:59;12.70;99.90
30280;DHT22;17097;50.916;5.344;2024-02-21T12:24:26;12.80;99.90
30280;DHT22;17097;50.916;5.344;2024-02-21T12:26:53;12.50;99.90
30280;DHT22;17097;50.916;5.344;2024-02-21T12:29:20;12.40;99.90
30280;DHT22;17097;50.916;5.344;2024-02-21T12:31:46;12.20;99.90
30280;DHT22;17097;50.916;5.344;2024-02-21T12:34:14;12.10;99.90
30280;DHT22;17097;50.916;5.344;2024-02-21T12:36:48;12.20;99.90
30280;DHT22;17097;50.916;5.344;2024-02-21T12:39:13;12.20;99.90
30280;DHT22;17097;50.916;5.344;2024-02-21T12:41:42;12.10;99.90
30280;DHT22;17097;50.916;5.344;2024-02-21T12:44:10;12.20;99.90
30280;DHT22;17097;50.916;5.344;2024-02-21T12:46:41;12.30;99.90
30280;DHT22;17097;50.916;5.344;2024-02-21T12:49:10;12.10;99.90
30280;DHT22;17097;50.916;5.344;2024-02-21T12:51:38;12.10;99.90
30280;DHT22;17097;50.916;5.344;2024-02-21T12:54:05;12.00;99.90
30280;DHT22;17097;50.916;5.344;2024-02-21T12:56:33;12.00;99.90
30280;DHT22;17097;50.916;5.344;2024-02-21T12:59:01;11.80;99.90
30280;DHT22;17097;50.916;5.344;2024-02-21T13:01:29;11.80;99.90
30280;DHT22;17097;50.916;5.344;2024-02-21T13:03:57;11.90;99.90
30280;DHT22;17097;50.916;5.344;2024-02-21T13:06:26;12.00;99.90
30280;DHT22;17097;50.916;5.344;2024-02-21T13:08:52;12.10;99.90
30280;DHT22;17097;50.916;5.344;2024-02-21T13:11:20;12.30;99.90
30280;DHT22;17097;50.916;5.344;2024-02-21T13:13:48;12.40;99.90
30280;DHT22;17097;50.916;5.344;2024-02-21T13:16:16;12.40;99.90
30280;DHT22;17097;50.916;5.344;2024-02-21T13:18:42;12.20;99.90
30280;DHT22;17097;50.916;5.344;2024-02-21T13:21:12;12.10;99.90
30280;DHT22;17097;50.916;5.344;2024-02-21T13:23:38;12.10;99.90
30280;DHT22;17097;50.916;5.344;2024-02-21T13:26:03;12.10;99.90
30280;DHT22;17097;50.916;5.344;2024-02-21T13:28:33;12.10;99.90
30280;DHT22;17097;50.916;5.344;2024-02-21T13:30:59;12.20;99.90
30280;DHT22;17097;50.916;5.344;2024-02-21T13:33:25;12.10;99.90
30280;DHT22;17097;50.916;5.344;2024-02-21T13:35:50;12.10;99.90
30280;DHT22;17097;50.916;5.344;2024-02-21T13:38:16;12.20;99.90
30280;DHT22;17097;50.916;5.344;2024-02-21T13:40:43;12.20;99.90
30280;DHT22;17097;50.916;5.344;2024-02-21T13:43:09;12.10;99.90
30280;DHT22;17097;50.916;5.344;2024-02-21T13:45:34;12.20;99.90
30280;DHT22;17097;50.916;5.344;2024-02-21T13:48:00;12.20;99.90
30280;DHT22;17097;50.916;5.344;2024-02-21T13:50:30;12.20;99.90
30280;DHT22;17097;50.916;5.344;2024-02-21T13:52:55;12.20;99.90
30280;DHT22;17097;50.916;5.344;2024-02-21T13:55:26;12.10;99.90
30280;DHT22;17097;50.916;5.344;2024-02-21T13:57:54;12.00;99.90
30280;DHT22;17097;50.916;5.344;2024-02-21T14:00:27;11.90;99.90
30280;DHT22;17097;50.916;5.344;2024-02-21T14:02:53;11.90;99.90
30280;DHT22;17097;50.916;5.344;2024-02-21T14:05:19;12.10;99.90
30280;DHT22;17097;50.916;5.344;2024-02-21T14:07:45;12.10;99.90
30280;DHT22;17097;50.916;5.344;2024-02-21T14:10:15;12.10;99.90
30280;DHT22;17097;50.916;5.344;2024-02-21T14:12:40;12.00;99.90
30280;DHT22;17097;50.916;5.344;2024-02-21T14:15:06;12.00;99.90
30280;DHT22;17097;50.916;5.344;2024-02-21T14:17:34;12.00;99.90
30280;DHT22;17097;50.916;5.344;2024-02-21T14:20:00;12.20;99.90
30280;DHT22;17097;50.916;5.344;2024-02-21T14:22:28;12.20;99.90
30280;DHT22;17097;50.916;5.344;2024-02-21T14:24:54;12.10;99.90
30280;DHT22;17097;50.916;5.344;2024-02-21T14:27:22;12.00;99.90
30280;DHT22;17097;50.916;5.344;2024-02-21T14:29:48;11.90;99.90
30280;DHT22;17097;50.916;5.344;2024-02-21T14:32:13;11.90;99.90
30280;DHT22;17097;50.916;5.344;2024-02-21T14:34:39;12.00;99.90
30280;DHT22;17097;50.916;5.344;2024-02-21T14:37:05;11.90;99.90
30280;DHT22;17097;50.916;5.344;2024-02-21T14:39:31;12.00;99.90
30280;DHT22;17097;50.916;5.344;2024-02-21T14:42:00;12.00;99.90
30280;DHT22;17097;50.916;5.344;2024-02-21T14:44:25;12.10;99.90
30280;DHT22;17097;50.916;5.344;2024-02-21T14:46:53;12.10;99.90
30280;DHT22;17097;50.916;5.344;2024-02-21T14:49:18;12.00;99.90
30280;DHT22;17097;50.916;5.344;2024-02-21T14:51:49;12.00;99.90
30280;DHT22;17097;50.916;5.344;2024-02-21T14:54:15;11.90;99.90
30280;DHT22;17097;50.916;5.344;2024-02-21T14:56:40;12.10;99.90
30280;DHT22;17097;50.916;5.344;2024-02-21T14:59:06;12.10;99.90
30280;DHT22;17097;50.916;5.344;2024-02-21T15:01:40;12.10;99.90
30280;DHT22;17097;50.916;5.344;2024-02-21T15:04:08;12.00;99.90
30280;DHT22;17097;50.916;5.344;2024-02-21T15:06:36;11.90;99.90
30280;DHT22;17097;50.916;5.344;2024-02-21T15:09:03;11.70;99.90
30280;DHT22;17097;50.916;5.344;2024-02-21T15:11:31;11.60;99.90
30280;DHT22;17097;50.916;5.344;2024-02-21T15:13:57;11.60;99.90
30280;DHT22;17097;50.916;5.344;2024-02-21T15:16:23;11.60;99.90
30280;DHT22;17097;50.916;5.344;2024-02-21T15:18:49;11.40;99.90
30280;DHT22;17097;50.916;5.344;2024-02-21T15:21:17;11.30;99.90
30280;DHT22;17097;50.916;5.344;2024-02-21T15:23:46;11.20;99.90
30280;DHT22;17097;50.916;5.344;2024-02-21T15:26:12;11.20;99.90
30280;DHT22;17097;50.916;5.344;2024-02-21T15:28:40;11.00;99.90
30280;DHT22;17097;50.916;5.344;2024-02-21T15:31:06;11.00;99.90
30280;DHT22;17097;50.916;5.344;2024-02-21T15:33:36;11.00;99.90
30280;DHT22;17097;50.916;5.344;2024-02-21T15:36:01;10.80;99.90
30280;DHT22;17097;50.916;5.344;2024-02-21T15:38:27;10.80;99.90
30280;DHT22;17097;50.916;5.344;2024-02-21T15:40:54;10.90;99.90
30280;DHT22;17097;50.916;5.344;2024-02-21T15:43:19;10.90;99.90
30280;DHT22;17097;50.916;5.344;2024-02-21T15:45:47;10.90;99.90